Time;durP1;ratioP1;P1;durP2;ratioP2;P2;SDS_P1;SDS_P2;PMS_P1;PMS_P2;Temp;Humidity;BMP_temperature;BMP_pressure;BME280_temperature;BME280_humidity;BME280_pressure;Samples;Min_cycle;Max_cycle;Signal;HPM_P1;HPM_P2
2024/03/14 00:00:23;;;;;;;;;;;;;;;14.63;65.19;99925.94;4136859;28;19910;-70
2024/03/14 00:02:23;;;;;;;;;;;;;;;14.54;65.51;99930.50;4145688;28;19932;-71
2024/03/14 00:04:25;;;;;;;;;;;;;;;14.56;65.33;99933.84;4144397;28;19945;-71
2024/03/14 00:06:25;;;;;;;;;;;;;;;14.62;64.98;99929.63;4143761;28;19910;-71
2024/03/14 00:08:26;;;;;;;;;;;;;;;14.54;65.35;99924.28;4155097;28;19917;-70
2024/03/14 00:10:26;;;;;;;;;;;;;;;14.59;65.18;99929.97;4140805;28;19916;-71
2024/03/14 00:12:27;;;;;;;;;;;;;;;14.58;65.15;99926.47;4140097;28;19910;-70
2024/03/14 00:14:27;;;;;;;;;;;;;;;14.51;65.43;99920.06;4141014;28;19913;-70
2024/03/14 00:16:27;;;;;;;;;;;;;;;14.48;65.79;99926.66;4141952;28;19911;-70
2024/03/14 00:18:28;;;;;;;;;;;;;;;14.47;65.98;99926.84;4144698;28;19924;-70
2024/03/14 00:20:28;;;;;;;;;;;;;;;14.57;65.54;99929.31;4144738;28;19910;-70
2024/03/14 00:22:28;;;;;;;;;;;;;;;14.58;65.50;99926.47;4160101;28;19996;-71
2024/03/14 00:24:29;;;;;;;;;;;;;;;14.54;65.60;99921.59;4147701;28;19914;-71
2024/03/14 00:26:31;;;;;;;;;;;;;;;14.50;66.04;99927.31;4139802;28;20397;-70
2024/03/14 00:28:33;;;;;;;;;;;;;;;14.45;66.04;99918.91;4131994;28;19914;-70
2024/03/14 00:30:33;;;;;;;;;;;;;;;14.46;65.96;99925.97;4140931;28;19910;-71
2024/03/14 00:32:34;;;;;;;;;;;;;;;14.49;66.08;99922.13;4143173;28;19910;-71
2024/03/14 00:34:36;;;;;;;;;;;;;;;14.49;66.29;99925.63;4159419;28;19913;-71
2024/03/14 00:36:39;;;;;;;;;;;;;;;14.44;66.33;99919.94;4136013;28;20337;-70
2024/03/14 00:38:41;;;;;;;;;;;;;;;14.45;66.45;99910.84;4148831;28;19990;-71
2024/03/14 00:40:41;;;;;;;;;;;;;;;14.41;66.49;99924.81;4132368;28;19913;-71
2024/03/14 00:42:45;;;;;;;;;;;;;;;14.28;66.52;99918.16;4130849;28;19917;-70
2024/03/14 00:44:45;;;;;;;;;;;;;;;14.18;66.86;99921.00;4145572;28;20465;-72
2024/03/14 00:46:46;;;;;;;;;;;;;;;14.20;66.93;99916.31;4131282;28;19917;-71
2024/03/14 00:48:46;;;;;;;;;;;;;;;14.10;67.18;99915.66;4146938;28;19957;-71
2024/03/14 00:50:46;;;;;;;;;;;;;;;14.06;67.09;99914.34;4131809;28;20409;-70
2024/03/14 00:52:47;;;;;;;;;;;;;;;14.14;66.73;99910.78;4130662;28;19956;-70
2024/03/14 00:54:47;;;;;;;;;;;;;;;14.16;66.88;99900.69;4131308;28;19984;-70
2024/03/14 00:56:48;;;;;;;;;;;;;;;14.21;66.83;99903.72;4129856;28;19917;-70
2024/03/14 00:58:49;;;;;;;;;;;;;;;14.17;66.76;99897.81;4131340;28;19909;-71
2024/03/14 01:00:50;;;;;;;;;;;;;;;14.11;66.85;99906.59;4131950;28;19910;-69
2024/03/14 01:02:50;;;;;;;;;;;;;;;14.10;66.82;99896.00;4131118;28;20301;-70
2024/03/14 01:04:53;;;;;;;;;;;;;;;14.09;66.87;99903.22;4130766;28;20020;-70
2024/03/14 01:06:54;;;;;;;;;;;;;;;14.06;66.87;99903.59;4131005;28;20384;-71
2024/03/14 01:08:55;;;;;;;;;;;;;;;14.12;66.29;99902.06;4131363;28;19960;-70
2024/03/14 01:10:55;;;;;;;;;;;;;;;14.12;66.67;99892.13;4130734;28;19964;-70
2024/03/14 01:12:55;;;;;;;;;;;;;;;14.21;66.49;99887.59;4131101;28;19975;-70
2024/03/14 01:14:56;;;;;;;;;;;;;;;14.19;66.30;99901.19;4130530;28;20021;-70
2024/03/14 01:16:56;;;;;;;;;;;;;;;14.15;66.42;99894.50;4131089;28;19909;-70
2024/03/14 01:18:56;;;;;;;;;;;;;;;14.20;66.33;99881.34;4146831;28;19909;-70
2024/03/14 01:20:57;;;;;;;;;;;;;;;14.20;65.89;99881.34;4139804;28;19944;-70
2024/03/14 01:22:57;;;;;;;;;;;;;;;14.21;66.42;99884.91;4155471;28;19910;-71
2024/03/14 01:24:57;;;;;;;;;;;;;;;14.29;66.18;99884.03;4140286;28;19916;-70
2024/03/14 01:26:58;;;;;;;;;;;;;;;14.31;65.75;99879.31;4138988;28;20500;-73
2024/03/14 01:28:59;;;;;;;;;;;;;;;14.30;65.93;99878.50;4141574;28;19909;-70
2024/03/14 01:31:02;;;;;;;;;;;;;;;14.27;65.83;99876.13;4142567;28;19910;-70
2024/03/14 01:33:04;;;;;;;;;;;;;;;14.22;65.94;99877.66;4141954;28;19910;-70
2024/03/14 01:35:05;;;;;;;;;;;;;;;14.23;65.94;99873.97;4148546;28;19913;-70
2024/03/14 01:37:06;;;;;;;;;;;;;;;14.28;65.91;99868.91;4130880;28;20397;-70
2024/03/14 01:39:10;;;;;;;;;;;;;;;14.29;65.55;99862.50;4130619;28;20549;-70
2024/03/14 01:41:18;;;;;;;;;;;;;;;14.29;65.72;99860.69;4131923;28;19914;-70
2024/03/14 01:43:19;;;;;;;;;;;;;;;14.22;65.70;99853.47;4131915;28;19906;-70
2024/03/14 01:45:19;;;;;;;;;;;;;;;14.16;65.70;99853.16;4132216;28;19909;-70
2024/03/14 01:47:21;;;;;;;;;;;;;;;14.16;65.59;99869.28;4130289;28;20382;-70
2024/03/14 01:49:22;;;;;;;;;;;;;;;14.07;65.98;99866.78;4130904;28;19910;-70
2024/03/14 01:51:23;;;;;;;;;;;;;;;13.91;66.71;99871.19;4131206;28;19913;-70
2024/03/14 01:53:23;;;;;;;;;;;;;;;13.89;66.69;99865.97;4131064;28;19917;-70
2024/03/14 01:55:24;;;;;;;;;;;;;;;13.93;66.20;99865.63;4130967;28;19917;-70
2024/03/14 01:57:25;;;;;;;;;;;;;;;13.87;66.56;99854.56;4130662;28;19916;-70
2024/03/14 01:59:28;;;;;;;;;;;;;;;13.86;66.32;99866.34;4132233;28;19912;-70
2024/03/14 02:01:28;;;;;;;;;;;;;;;13.94;66.30;99853.88;4133337;28;20579;-69
2024/03/14 02:03:29;;;;;;;;;;;;;;;13.99;66.26;99851.50;4132973;28;19909;-71
2024/03/14 02:05:37;;;;;;;;;;;;;;;13.89;66.00;99847.16;4132069;28;19960;-70
2024/03/14 02:07:39;;;;;;;;;;;;;;;13.94;66.20;99849.34;4132255;28;19920;-70
2024/03/14 02:09:40;;;;;;;;;;;;;;;13.85;66.44;99855.72;4130973;28;20347;-70
2024/03/14 02:11:40;;;;;;;;;;;;;;;13.72;66.56;99858.94;4131901;28;19960;-70
2024/03/14 02:13:41;;;;;;;;;;;;;;;13.68;66.64;99861.13;4133916;28;19914;-70
2024/03/14 02:15:41;;;;;;;;;;;;;;;13.70;66.77;99853.75;4148496;28;19913;-70
2024/03/14 02:17:42;;;;;;;;;;;;;;;13.57;67.17;99851.59;4133862;28;20021;-70
2024/03/14 02:19:42;;;;;;;;;;;;;;;13.63;67.08;99860.81;4133753;28;20370;-69
2024/03/14 02:21:43;;;;;;;;;;;;;;;13.60;67.00;99854.97;4133711;28;19910;-70
2024/03/14 02:23:43;;;;;;;;;;;;;;;13.53;67.18;99858.28;4133183;28;20330;-70
2024/03/14 02:25:43;;;;;;;;;;;;;;;13.59;67.29;99855.97;4132661;28;19964;-70
2024/03/14 02:27:44;;;;;;;;;;;;;;;13.58;67.39;99860.47;4132936;28;19916;-69
2024/03/14 02:29:44;;;;;;;;;;;;;;;13.57;67.51;99853.41;4132430;28;19917;-70
2024/03/14 02:31:44;;;;;;;;;;;;;;;13.51;67.51;99856.78;4147495;28;19960;-70
2024/03/14 02:33:45;;;;;;;;;;;;;;;13.48;67.61;99854.44;4133066;28;19916;-70
2024/03/14 02:35:45;;;;;;;;;;;;;;;13.39;67.54;99851.75;4133043;28;19917;-70
2024/03/14 02:37:46;;;;;;;;;;;;;;;13.32;68.19;99853.41;4132561;28;19953;-70
2024/03/14 02:39:47;;;;;;;;;;;;;;;13.31;67.99;99853.59;4132205;28;19921;-70
2024/03/14 02:41:49;;;;;;;;;;;;;;;13.32;68.49;99847.22;4132862;28;20478;-70
2024/03/14 02:43:55;;;;;;;;;;;;;;;13.30;68.52;99851.91;4133131;28;19909;-70
2024/03/14 02:45:55;;;;;;;;;;;;;;;13.35;68.18;99853.09;4133220;28;20425;-69
2024/03/14 02:47:56;;;;;;;;;;;;;;;13.24;69.00;99854.22;4132389;28;19909;-70
2024/03/14 02:49:56;;;;;;;;;;;;;;;13.26;68.71;99854.09;4132502;28;20294;-70
2024/03/14 02:51:58;;;;;;;;;;;;;;;13.19;68.68;99847.69;4132030;28;19920;-69
2024/03/14 02:53:59;;;;;;;;;;;;;;;13.11;68.92;99853.91;4133341;28;19956;-70
2024/03/14 02:55:59;;;;;;;;;;;;;;;13.16;68.88;99840.81;4147742;28;19913;-70
2024/03/14 02:58:01;;;;;;;;;;;;;;;13.08;69.00;99838.94;4132722;28;19941;-70
2024/03/14 03:00:04;;;;;;;;;;;;;;;13.10;69.16;99849.53;4133075;28;19914;-70
2024/03/14 03:02:10;;;;;;;;;;;;;;;13.25;68.76;99839.81;4133612;28;20008;-70
2024/03/14 03:04:11;;;;;;;;;;;;;;;13.18;68.72;99843.31;4150686;28;19917;-71
2024/03/14 03:06:11;;;;;;;;;;;;;;;13.20;68.61;99839.50;4134245;28;19960;-70
2024/03/14 03:08:12;;;;;;;;;;;;;;;13.21;68.79;99838.47;4131847;28;19964;-71
2024/03/14 03:10:12;;;;;;;;;;;;;;;13.25;68.72;99838.97;4147156;28;19920;-70
2024/03/14 03:12:12;;;;;;;;;;;;;;;13.22;68.90;99848.22;4131351;28;19914;-70
2024/03/14 03:14:13;;;;;;;;;;;;;;;13.10;69.15;99844.16;4132107;28;19910;-70
2024/03/14 03:16:13;;;;;;;;;;;;;;;13.07;69.47;99847.19;4132682;28;19949;-71
2024/03/14 03:18:14;;;;;;;;;;;;;;;13.20;69.09;99850.22;4132751;28;19917;-71
2024/03/14 03:20:15;;;;;;;;;;;;;;;13.19;68.70;99843.16;4133215;28;19910;-70
2024/03/14 03:22:16;;;;;;;;;;;;;;;13.17;68.87;99836.31;4132553;28;19914;-70
2024/03/14 03:24:16;;;;;;;;;;;;;;;13.09;69.09;99839.81;4131837;28;19996;-71
2024/03/14 03:26:18;;;;;;;;;;;;;;;12.95;69.21;99839.44;4132645;28;19922;-70
2024/03/14 03:28:18;;;;;;;;;;;;;;;12.89;69.52;99829.38;4146940;28;20329;-70
2024/03/14 03:30:19;;;;;;;;;;;;;;;12.88;69.62;99835.75;4131352;28;19968;-71
2024/03/14 03:32:19;;;;;;;;;;;;;;;12.83;69.47;99829.19;4132024;28;20587;-70
2024/03/14 03:34:23;;;;;;;;;;;;;;;12.78;69.74;99827.88;4136933;28;19909;-72
2024/03/14 03:36:23;;;;;;;;;;;;;;;12.80;69.86;99828.50;4116403;28;19918;-70
2024/03/14 03:38:24;;;;;;;;;;;;;;;12.86;69.84;99831.56;4116427;28;19934;-70
2024/03/14 03:40:29;;;;;;;;;;;;;;;12.76;69.76;99834.38;4131506;28;20394;-70
2024/03/14 03:42:30;;;;;;;;;;;;;;;12.84;69.86;99834.41;4115659;28;19914;-71
2024/03/14 03:44:30;;;;;;;;;;;;;;;12.85;69.88;99827.19;4116952;28;19914;-70
2024/03/14 03:46:32;;;;;;;;;;;;;;;12.81;69.47;99832.06;4116693;28;19918;-70
2024/03/14 03:48:34;;;;;;;;;;;;;;;12.75;69.60;99827.34;4116879;28;19945;-71
2024/03/14 03:50:35;;;;;;;;;;;;;;;12.62;70.07;99827.81;4132228;28;19918;-70
2024/03/14 03:52:35;;;;;;;;;;;;;;;12.57;70.31;99830.16;4116698;28;20339;-70
2024/03/14 03:54:36;;;;;;;;;;;;;;;12.55;70.44;99827.63;4116042;28;19917;-70
2024/03/14 03:56:36;;;;;;;;;;;;;;;12.58;70.46;99821.94;4116321;28;20389;-70
2024/03/14 03:58:36;;;;;;;;;;;;;;;12.54;70.52;99828.63;4130300;28;20595;-71
2024/03/14 04:00:46;;;;;;;;;;;;;;;12.47;70.63;99830.25;4131018;28;19917;-70
2024/03/14 04:02:46;;;;;;;;;;;;;;;12.43;71.08;99828.94;4116452;28;19938;-70
2024/03/14 04:04:47;;;;;;;;;;;;;;;12.38;71.24;99821.38;4113829;28;19910;-70
2024/03/14 04:06:47;;;;;;;;;;;;;;;12.32;71.44;99822.03;4110102;28;20459;-70
2024/03/14 04:08:48;;;;;;;;;;;;;;;12.32;71.54;99822.03;4115798;28;19921;-70
2024/03/14 04:10:48;;;;;;;;;;;;;;;12.31;71.35;99821.19;4115832;28;19914;-70
2024/03/14 04:12:48;;;;;;;;;;;;;;;12.26;71.70;99815.47;4115658;28;19976;-70
2024/03/14 04:14:48;;;;;;;;;;;;;;;12.23;71.86;99820.31;4115463;28;20509;-70
2024/03/14 04:16:49;;;;;;;;;;;;;;;12.22;71.88;99813.28;4110719;28;20012;-70
2024/03/14 04:18:49;;;;;;;;;;;;;;;12.20;72.03;99816.09;4115764;28;19916;-70
2024/03/14 04:20:50;;;;;;;;;;;;;;;12.15;72.00;99815.75;4116346;28;19917;-70
2024/03/14 04:22:53;;;;;;;;;;;;;;;12.24;71.83;99809.44;4115618;28;19910;-70
2024/03/14 04:24:53;;;;;;;;;;;;;;;12.16;71.98;99817.44;4114542;28;20060;-70
2024/03/14 04:26:55;;;;;;;;;;;;;;;12.20;71.94;99812.59;4114911;28;19918;-70
2024/03/14 04:28:56;;;;;;;;;;;;;;;12.14;72.00;99816.75;4115279;28;19910;-70
2024/03/14 04:30:56;;;;;;;;;;;;;;;12.18;72.09;99820.81;4115803;28;20393;-70
2024/03/14 04:32:57;;;;;;;;;;;;;;;12.25;71.84;99818.28;4116004;28;20389;-70
2024/03/14 04:34:58;;;;;;;;;;;;;;;12.27;71.57;99814.47;4115013;28;19921;-70
2024/03/14 04:36:58;;;;;;;;;;;;;;;12.26;71.72;99815.47;4117399;28;19918;-70
2024/03/14 04:38:59;;;;;;;;;;;;;;;12.29;71.85;99820.50;4117488;28;19956;-70
2024/03/14 04:41:00;;;;;;;;;;;;;;;12.28;71.74;99812.63;4118538;28;19910;-70
2024/03/14 04:43:01;;;;;;;;;;;;;;;12.35;71.60;99816.31;4118113;28;20004;-70
2024/03/14 04:45:02;;;;;;;;;;;;;;;12.45;71.15;99816.22;4116081;28;19914;-70
2024/03/14 04:47:03;;;;;;;;;;;;;;;12.38;71.45;99815.16;4115270;28;19917;-70
2024/03/14 04:49:04;;;;;;;;;;;;;;;12.40;71.25;99818.53;4115568;28;19972;-70
2024/03/14 04:51:04;;;;;;;;;;;;;;;12.40;71.22;99813.16;4115263;28;19914;-70
2024/03/14 04:53:05;;;;;;;;;;;;;;;12.29;71.49;99822.34;4115354;28;19910;-70
2024/03/14 04:55:08;;;;;;;;;;;;;;;12.32;71.62;99828.22;4115100;28;20389;-69
2024/03/14 04:57:09;;;;;;;;;;;;;;;12.32;71.21;99814.00;4114466;28;19994;-70
2024/03/14 04:59:09;;;;;;;;;;;;;;;12.37;71.56;99819.69;4114863;28;19910;-70
2024/03/14 05:01:10;;;;;;;;;;;;;;;12.37;71.26;99818.88;4115414;28;19917;-70
2024/03/14 05:03:10;;;;;;;;;;;;;;;12.27;71.78;99817.16;4114841;28;19913;-70
2024/03/14 05:05:10;;;;;;;;;;;;;;;12.38;71.44;99817.84;4114449;28;19909;-70
2024/03/14 05:07:11;;;;;;;;;;;;;;;12.38;71.41;99817.84;4114998;28;19945;-70
2024/03/14 05:09:11;;;;;;;;;;;;;;;12.42;71.13;99813.84;4114135;28;20426;-68
2024/03/14 05:11:12;;;;;;;;;;;;;;;12.34;71.45;99822.69;4114776;28;19933;-69
2024/03/14 05:13:13;;;;;;;;;;;;;;;12.40;71.20;99815.84;4128558;28;20538;-69
2024/03/14 05:15:14;;;;;;;;;;;;;;;12.41;71.00;99817.53;4113544;28;19910;-70
2024/03/14 05:17:15;;;;;;;;;;;;;;;12.37;70.96;99811.66;4113844;28;19910;-70
2024/03/14 05:19:16;;;;;;;;;;;;;;;12.42;71.06;99827.25;4114138;28;20290;-70
2024/03/14 05:21:16;;;;;;;;;;;;;;;12.26;71.64;99818.16;4112990;28;20563;-70
2024/03/14 05:23:16;;;;;;;;;;;;;;;12.27;71.47;99817.16;4113766;28;19957;-70
2024/03/14 05:25:17;;;;;;;;;;;;;;;12.25;71.33;99819.16;4113283;28;20382;-70
2024/03/14 05:27:17;;;;;;;;;;;;;;;12.31;71.40;99815.00;4128130;28;19910;-70
2024/03/14 05:29:19;;;;;;;;;;;;;;;12.41;70.99;99809.47;4113317;28;20356;-70
2024/03/14 05:31:19;;;;;;;;;;;;;;;12.45;70.92;99809.00;4113439;28;19929;-70
2024/03/14 05:33:19;;;;;;;;;;;;;;;12.48;70.44;99811.34;4112706;28;20517;-71
2024/03/14 05:35:19;;;;;;;;;;;;;;;12.41;71.00;99810.34;4113458;28;19976;-70
2024/03/14 05:37:21;;;;;;;;;;;;;;;12.42;70.72;99812.00;4113312;28;20009;-71
2024/03/14 05:39:24;;;;;;;;;;;;;;;12.31;70.93;99815.81;4113816;28;19941;-70
2024/03/14 05:41:24;;;;;;;;;;;;;;;12.31;71.21;99810.47;4113601;28;19910;-70
2024/03/14 05:43:25;;;;;;;;;;;;;;;12.17;71.53;99811.09;4113099;28;20235;-70
2024/03/14 05:45:25;;;;;;;;;;;;;;;12.17;71.35;99816.44;4113084;28;19965;-70
2024/03/14 05:47:25;;;;;;;;;;;;;;;12.19;71.45;99811.75;4114822;28;19910;-69
2024/03/14 05:49:26;;;;;;;;;;;;;;;12.22;71.50;99816.78;4116843;28;19917;-70
2024/03/14 05:51:26;;;;;;;;;;;;;;;12.20;71.27;99816.09;4116964;28;19914;-69
2024/03/14 05:53:30;;;;;;;;;;;;;;;12.08;71.69;99822.75;4116443;28;19914;-70
2024/03/14 05:55:31;;;;;;;;;;;;;;;12.09;71.65;99819.09;4116394;28;19957;-69
2024/03/14 05:57:31;;;;;;;;;;;;;;;12.06;71.79;99828.25;4116364;28;20375;-70
2024/03/14 05:59:32;;;;;;;;;;;;;;;12.14;71.87;99828.28;4116819;28;20355;-69
2024/03/14 06:01:32;;;;;;;;;;;;;;;12.20;71.51;99834.84;4116151;28;20037;-69
2024/03/14 06:03:32;;;;;;;;;;;;;;;12.15;71.57;99831.84;4116130;28;19910;-70
2024/03/14 06:05:33;;;;;;;;;;;;;;;12.16;71.40;99833.50;4116481;28;19965;-70
2024/03/14 06:07:34;;;;;;;;;;;;;;;12.09;71.85;99827.13;4116065;28;20016;-71
2024/03/14 06:09:43;;;;;;;;;;;;;;;12.10;71.71;99828.78;4116478;28;20000;-70
2024/03/14 06:11:43;;;;;;;;;;;;;;;12.05;71.90;99831.94;4116478;28;19913;-69
2024/03/14 06:13:45;;;;;;;;;;;;;;;12.02;71.60;99835.78;4115823;28;19924;-70
2024/03/14 06:15:45;;;;;;;;;;;;;;;11.94;71.79;99833.03;4129957;28;20301;-70
2024/03/14 06:17:50;;;;;;;;;;;;;;;11.89;72.25;99835.34;4116739;28;19941;-70
2024/03/14 06:19:51;;;;;;;;;;;;;;;11.91;72.10;99833.34;4116599;28;19917;-70
2024/03/14 06:21:52;;;;;;;;;;;;;;;11.86;72.16;99833.81;4116881;28;19922;-70
2024/03/14 06:23:52;;;;;;;;;;;;;;;11.84;72.34;99829.63;4130792;28;19916;-70
2024/03/14 06:25:52;;;;;;;;;;;;;;;11.71;72.91;99830.88;4116934;28;19906;-70
2024/03/14 06:27:53;;;;;;;;;;;;;;;11.68;73.07;99831.22;4131289;28;20559;-70
2024/03/14 06:29:54;;;;;;;;;;;;;;;11.70;72.77;99829.22;4117135;28;19914;-70
2024/03/14 06:31:54;;;;;;;;;;;;;;;11.75;72.88;99828.75;4119107;28;19914;-69
2024/03/14 06:33:56;;;;;;;;;;;;;;;11.78;72.53;99835.63;4118970;28;19933;-70
2024/03/14 06:35:56;;;;;;;;;;;;;;;11.89;72.80;99842.53;4132148;28;19917;-70
2024/03/14 06:37:57;;;;;;;;;;;;;;;11.74;72.95;99835.09;4121358;28;19926;-70
2024/03/14 06:39:57;;;;;;;;;;;;;;;11.81;72.82;99829.94;4122054;28;19917;-70
2024/03/14 06:41:58;;;;;;;;;;;;;;;12.00;72.43;99837.78;4139963;28;20315;-70
2024/03/14 06:43:59;;;;;;;;;;;;;;;11.91;72.28;99841.38;4126651;28;19910;-70
2024/03/14 06:46:00;;;;;;;;;;;;;;;11.89;72.32;99838.03;4127281;28;19914;-70
2024/03/14 06:48:01;;;;;;;;;;;;;;;11.91;72.31;99840.53;4141932;28;20366;-72
2024/03/14 06:50:03;;;;;;;;;;;;;;;11.77;72.58;99833.94;4125453;28;19914;-72
2024/03/14 06:52:05;;;;;;;;;;;;;;;11.92;72.64;99835.03;4124090;28;19914;-70
2024/03/14 06:54:06;;;;;;;;;;;;;;;12.00;72.00;99829.72;4133120;28;19922;-71
2024/03/14 06:56:08;;;;;;;;;;;;;;;11.88;71.94;99839.03;4142323;28;20317;-71
2024/03/14 06:58:09;;;;;;;;;;;;;;;11.98;71.54;99834.44;4155297;28;19913;-70
2024/03/14 07:00:12;;;;;;;;;;;;;;;12.16;71.02;99830.84;4134131;28;19917;-71
2024/03/14 07:02:16;;;;;;;;;;;;;;;12.02;71.09;99837.63;4147384;28;19910;-71
2024/03/14 07:04:18;;;;;;;;;;;;;;;12.00;71.26;99831.59;4136013;28;19916;-71
2024/03/14 07:06:23;;;;;;;;;;;;;;;12.06;70.67;99830.13;4133066;28;19913;-70
2024/03/14 07:08:26;;;;;;;;;;;;;;;12.23;69.84;99821.16;4136339;28;19909;-72
2024/03/14 07:10:26;;;;;;;;;;;;;;;12.28;70.13;99826.03;4134493;28;19913;-71
2024/03/14 07:12:27;;;;;;;;;;;;;;;12.17;70.06;99829.84;4136559;28;20684;-71
2024/03/14 07:14:29;;;;;;;;;;;;;;;12.28;69.89;99826.84;4138373;28;19917;-71
2024/03/14 07:16:29;;;;;;;;;;;;;;;12.21;69.91;99827.69;4137844;28;19932;-70
2024/03/14 07:18:31;;;;;;;;;;;;;;;11.99;70.04;99827.22;4132393;28;19910;-71
2024/03/14 07:20:36;;;;;;;;;;;;;;;12.11;69.69;99825.97;4132471;28;19918;-70
2024/03/14 07:22:37;;;;;;;;;;;;;;;12.01;69.05;99836.78;4129868;28;19910;-70
2024/03/14 07:24:38;;;;;;;;;;;;;;;12.06;69.01;99833.63;4131746;28;19916;-70
2024/03/14 07:26:38;;;;;;;;;;;;;;;11.93;69.17;99834.03;4131280;28;19996;-70
2024/03/14 07:28:38;;;;;;;;;;;;;;;12.28;68.14;99829.53;4132335;28;19910;-70
2024/03/14 07:30:41;;;;;;;;;;;;;;;12.01;68.75;99841.31;4130716;28;20366;-70
2024/03/14 07:32:41;;;;;;;;;;;;;;;12.14;68.36;99830.97;4132113;28;20434;-71
2024/03/14 07:34:44;;;;;;;;;;;;;;;12.26;67.17;99830.69;4131353;28;19918;-70
2024/03/14 07:36:45;;;;;;;;;;;;;;;12.20;68.06;99839.38;4130663;28;19918;-70
2024/03/14 07:38:48;;;;;;;;;;;;;;;12.29;67.15;99838.44;4129918;28;20405;-70
2024/03/14 07:40:49;;;;;;;;;;;;;;;12.35;66.91;99839.63;4130319;28;19917;-69
2024/03/14 07:42:49;;;;;;;;;;;;;;;12.14;67.27;99847.06;4130665;28;19909;-71
2024/03/14 07:44:50;;;;;;;;;;;;;;;12.37;66.35;99843.00;4130320;28;19914;-70
2024/03/14 07:46:51;;;;;;;;;;;;;;;12.36;67.28;99842.13;4129461;28;19910;-70
2024/03/14 07:48:51;;;;;;;;;;;;;;;12.28;66.96;99842.94;4131226;28;20387;-70
2024/03/14 07:50:51;;;;;;;;;;;;;;;12.39;66.58;99841.81;4129307;28;20441;-70
2024/03/14 07:52:54;;;;;;;;;;;;;;;12.52;65.95;99841.38;4131603;28;19918;-71
2024/03/14 07:54:54;;;;;;;;;;;;;;;12.71;65.17;99840.22;4130175;28;19921;-71
2024/03/14 07:56:54;;;;;;;;;;;;;;;12.77;64.83;99841.41;4129745;28;19914;-70
2024/03/14 07:58:55;;;;;;;;;;;;;;;12.84;64.72;99842.47;4129726;28;19914;-70
2024/03/14 08:00:55;;;;;;;;;;;;;;;12.85;65.06;99838.75;4130615;28;19960;-70
2024/03/14 08:02:56;;;;;;;;;;;;;;;13.01;64.35;99842.47;4131118;28;19913;-70
2024/03/14 08:04:57;;;;;;;;;;;;;;;13.04;64.41;99847.50;4130556;28;19952;-70
2024/03/14 08:06:58;;;;;;;;;;;;;;;13.04;64.21;99850.19;4129461;28;19909;-71
2024/03/14 08:09:01;;;;;;;;;;;;;;;12.69;64.89;99849.44;4130932;28;19917;-71
2024/03/14 08:11:03;;;;;;;;;;;;;;;12.93;64.41;99849.53;4130759;28;19914;-70
2024/03/14 08:13:04;;;;;;;;;;;;;;;12.46;65.24;99844.69;4130907;28;19914;-70
2024/03/14 08:15:16;;;;;;;;;;;;;;;12.69;64.82;99839.56;4130670;28;19961;-70
2024/03/14 08:17:20;;;;;;;;;;;;;;;13.05;63.73;99838.44;4130718;28;20429;-71
2024/03/14 08:19:21;;;;;;;;;;;;;;;13.07;63.81;99833.75;4130816;28;19913;-72
2024/03/14 08:21:22;;;;;;;;;;;;;;;13.04;63.29;99834.09;4131156;28;19916;-71
2024/03/14 08:23:23;;;;;;;;;;;;;;;13.21;63.05;99833.13;4130962;28;19917;-71
2024/03/14 08:25:24;;;;;;;;;;;;;;;13.10;62.99;99836.13;4130351;28;19913;-71
2024/03/14 08:27:25;;;;;;;;;;;;;;;13.02;63.76;99839.63;4130576;28;19916;-71
2024/03/14 08:29:26;;;;;;;;;;;;;;;13.09;63.28;99837.13;4129090;28;19917;-71
2024/03/14 08:31:26;;;;;;;;;;;;;;;13.06;63.50;99837.44;4129865;28;20286;-70
2024/03/14 08:33:27;;;;;;;;;;;;;;;13.31;62.69;99835.63;4130458;28;20345;-71
2024/03/14 08:35:27;;;;;;;;;;;;;;;13.40;62.31;99839.19;4130751;28;19963;-71
2024/03/14 08:37:30;;;;;;;;;;;;;;;13.40;62.27;99840.00;4130041;28;19925;-70
2024/03/14 08:39:30;;;;;;;;;;;;;;;13.67;61.27;99837.16;4131348;28;19980;-71
2024/03/14 08:41:32;;;;;;;;;;;;;;;13.91;60.93;99827.34;4130012;28;19920;-70
2024/03/14 08:43:33;;;;;;;;;;;;;;;14.16;60.32;99831.66;4129491;28;19921;-69
2024/03/14 08:45:35;;;;;;;;;;;;;;;14.56;59.23;99836.16;4131064;28;19918;-69
2024/03/14 08:47:36;;;;;;;;;;;;;;;14.33;59.95;99831.59;4127009;28;19918;-71
2024/03/14 08:49:36;;;;;;;;;;;;;;;14.61;58.17;99836.50;4129444;28;19910;-69
2024/03/14 08:51:37;;;;;;;;;;;;;;;14.50;58.85;99832.31;4138487;28;19939;-70
2024/03/14 08:54:07;;;;;;;;;;;;;;;14.42;59.28;99830.53;4127511;28;19925;-69
2024/03/14 08:55:58;;;;;;;;;;;;;;;14.62;58.32;99816.66;4128929;28;19910;-69
2024/03/14 08:58:03;;;;;;;;;;;;;;;14.76;58.60;99818.59;4130462;28;20389;-70
2024/03/14 09:00:05;;;;;;;;;;;;;;;14.70;58.49;99816.63;4131219;28;19920;-70
2024/03/14 09:02:07;;;;;;;;;;;;;;;14.98;57.11;99819.63;4136744;28;19916;-69
2024/03/14 09:04:08;;;;;;;;;;;;;;;14.86;57.58;99820.22;4131318;28;19913;-70
2024/03/14 09:06:08;;;;;;;;;;;;;;;15.11;56.77;99818.19;4129029;28;20478;-69
2024/03/14 09:08:08;;;;;;;;;;;;;;;15.48;56.10;99813.03;4129960;28;19917;-70
2024/03/14 09:10:25;;;;;;;;;;;;;;;15.21;57.20;99820.66;4137672;28;19909;-70
2024/03/14 09:12:25;;;;;;;;;;;;;;;15.24;56.67;99813.06;4146103;28;19920;-69
2024/03/14 09:14:26;;;;;;;;;;;;;;;15.11;57.47;99808.25;4147978;28;19910;-70
2024/03/14 09:16:30;;;;;;;;;;;;;;;15.22;57.57;99815.09;4147106;28;19959;-70
2024/03/14 09:18:31;;;;;;;;;;;;;;;14.79;58.31;99815.56;4145029;28;19910;-69
2024/03/14 09:20:32;;;;;;;;;;;;;;;14.77;58.60;99806.00;4145014;28;19923;-70
2024/03/14 09:22:32;;;;;;;;;;;;;;;14.70;58.35;99805.00;4134496;28;19997;-69
2024/03/14 09:24:33;;;;;;;;;;;;;;;14.81;58.69;99810.84;4140086;28;20273;-69
2024/03/14 09:26:38;;;;;;;;;;;;;;;15.05;57.72;99798.22;4143707;28;20365;-69
2024/03/14 09:28:39;;;;;;;;;;;;;;;15.20;57.12;99803.66;4140939;28;20397;-70
2024/03/14 09:30:42;;;;;;;;;;;;;;;15.45;56.82;99792.66;4149899;28;19951;-69
2024/03/14 09:32:42;;;;;;;;;;;;;;;15.16;57.05;99799.63;4136893;28;20009;-69
2024/03/14 09:34:43;;;;;;;;;;;;;;;15.44;56.84;99797.22;4129890;28;19957;-69
2024/03/14 09:36:43;;;;;;;;;;;;;;;15.74;55.64;99794.56;4144828;28;20413;-70
2024/03/14 09:38:44;;;;;;;;;;;;;;;15.43;56.35;99795.53;4132037;28;19929;-70
2024/03/14 09:40:44;;;;;;;;;;;;;;;15.56;56.25;99799.47;4143686;28;20001;-69
2024/03/14 09:42:47;;;;;;;;;;;;;;;15.93;55.58;99795.06;4148399;28;19910;-70
2024/03/14 09:44:47;;;;;;;;;;;;;;;16.14;54.95;99798.88;4148906;28;20000;-69
2024/03/14 09:46:55;;;;;;;;;;;;;;;15.61;56.22;99791.66;4147292;28;19953;-70
2024/03/14 09:48:56;;;;;;;;;;;;;;;15.61;55.94;99791.66;4148936;28;19924;-70
2024/03/14 09:50:56;;;;;;;;;;;;;;;15.73;55.87;99792.91;4148823;28;20281;-69
2024/03/14 09:52:58;;;;;;;;;;;;;;;16.10;54.68;99795.72;4148604;28;19924;-69
2024/03/14 09:54:59;;;;;;;;;;;;;;;16.48;54.00;99786.63;4148722;28;20016;-70
2024/03/14 09:56:59;;;;;;;;;;;;;;;16.57;53.68;99793.59;4148542;28;20274;-70
2024/03/14 09:59:00;;;;;;;;;;;;;;;16.29;54.50;99791.59;4149045;28;19913;-70
2024/03/14 10:01:03;;;;;;;;;;;;;;;16.53;53.90;99789.63;4148654;28;19909;-70
2024/03/14 10:03:05;;;;;;;;;;;;;;;16.45;54.29;99792.41;4148249;28;20004;-70
2024/03/14 10:05:16;;;;;;;;;;;;;;;16.73;53.50;99792.53;4148904;28;19956;-69
2024/03/14 10:07:17;;;;;;;;;;;;;;;17.34;52.62;99785.00;4147243;28;19916;-70
2024/03/14 10:09:22;;;;;;;;;;;;;;;17.68;51.14;99775.25;4150692;28;19909;-70
2024/03/14 10:11:24;;;;;;;;;;;;;;;17.64;51.00;99779.41;4154114;28;19963;-70
2024/03/14 10:13:29;;;;;;;;;;;;;;;17.69;51.18;99776.94;4151111;28;19913;-70
2024/03/14 10:15:29;;;;;;;;;;;;;;;17.78;50.85;99773.91;4149351;28;19913;-70
2024/03/14 10:17:31;;;;;;;;;;;;;;;17.97;50.32;99773.38;4151866;28;19913;-70
2024/03/14 10:19:35;;;;;;;;;;;;;;;18.09;49.95;99771.78;4153930;28;19933;-70
2024/03/14 10:21:35;;;;;;;;;;;;;;;18.00;49.80;99773.81;4148497;28;19916;-69
2024/03/14 10:23:36;;;;;;;;;;;;;;;18.30;49.71;99767.31;4148045;28;19959;-70
2024/03/14 10:25:39;;;;;;;;;;;;;;;18.19;49.80;99766.84;4147533;28;19994;-69
2024/03/14 10:27:44;;;;;;;;;;;;;;;18.63;48.92;99758.44;4147062;28;19916;-70
2024/03/14 10:29:45;;;;;;;;;;;;;;;18.61;48.74;99757.84;4147390;28;19999;-71
2024/03/14 10:31:46;;;;;;;;;;;;;;;18.09;49.71;99766.38;4150230;28;19909;-69